sensor_id;sensor_type;location;lat;lon;timestamp;temperature;humidity
13328;DHT22;6733;51.044;3.746;2023-04-24T00:00:57;10.40;99.90
13328;DHT22;6733;51.044;3.746;2023-04-24T00:03:24;10.40;99.90
13328;DHT22;6733;51.044;3.746;2023-04-24T00:05:50;10.40;99.90
13328;DHT22;6733;51.044;3.746;2023-04-24T00:08:18;10.50;99.90
13328;DHT22;6733;51.044;3.746;2023-04-24T00:10:44;10.40;99.90
13328;DHT22;6733;51.044;3.746;2023-04-24T00:13:10;10.40;99.90
13328;DHT22;6733;51.044;3.746;2023-04-24T00:15:37;10.30;99.90
13328;DHT22;6733;51.044;3.746;2023-04-24T00:18:03;10.30;99.90
13328;DHT22;6733;51.044;3.746;2023-04-24T00:20:29;10.40;99.90
13328;DHT22;6733;51.044;3.746;2023-04-24T00:22:58;10.40;99.90
13328;DHT22;6733;51.044;3.746;2023-04-24T00:25:24;10.40;99.90
13328;DHT22;6733;51.044;3.746;2023-04-24T00:27:51;10.40;99.90
13328;DHT22;6733;51.044;3.746;2023-04-24T00:30:17;10.40;99.90
13328;DHT22;6733;51.044;3.746;2023-04-24T00:32:43;10.50;99.90
13328;DHT22;6733;51.044;3.746;2023-04-24T00:35:09;10.40;99.90
13328;DHT22;6733;51.044;3.746;2023-04-24T00:37:36;10.50;99.90
13328;DHT22;6733;51.044;3.746;2023-04-24T00:40:02;10.40;99.90
13328;DHT22;6733;51.044;3.746;2023-04-24T00:42:29;10.40;99.90
13328;DHT22;6733;51.044;3.746;2023-04-24T00:44:56;10.40;99.90
13328;DHT22;6733;51.044;3.746;2023-04-24T00:47:22;10.30;99.90
13328;DHT22;6733;51.044;3.746;2023-04-24T00:49:49;10.30;99.90
13328;DHT22;6733;51.044;3.746;2023-04-24T00:52:15;10.30;99.90
13328;DHT22;6733;51.044;3.746;2023-04-24T00:54:44;10.30;99.90
13328;DHT22;6733;51.044;3.746;2023-04-24T00:57:14;10.30;99.90
13328;DHT22;6733;51.044;3.746;2023-04-24T00:59:44;10.30;99.90
13328;DHT22;6733;51.044;3.746;2023-04-24T01:02:11;10.40;99.90
13328;DHT22;6733;51.044;3.746;2023-04-24T01:04:37;10.40;99.90
13328;DHT22;6733;51.044;3.746;2023-04-24T01:07:04;10.30;99.90
13328;DHT22;6733;51.044;3.746;2023-04-24T01:09:40;10.30;99.90
13328;DHT22;6733;51.044;3.746;2023-04-24T01:12:09;10.30;99.90
13328;DHT22;6733;51.044;3.746;2023-04-24T01:14:37;10.30;99.90
13328;DHT22;6733;51.044;3.746;2023-04-24T01:17:03;10.20;99.90
13328;DHT22;6733;51.044;3.746;2023-04-24T01:19:29;10.20;99.90
13328;DHT22;6733;51.044;3.746;2023-04-24T01:21:58;10.30;99.90
13328;DHT22;6733;51.044;3.746;2023-04-24T01:24:24;10.40;99.90
13328;DHT22;6733;51.044;3.746;2023-04-24T01:26:51;10.30;99.90
13328;DHT22;6733;51.044;3.746;2023-04-24T01:29:17;10.20;99.90
13328;DHT22;6733;51.044;3.746;2023-04-24T01:31:43;10.10;99.90
13328;DHT22;6733;51.044;3.746;2023-04-24T01:34:10;10.20;99.90
13328;DHT22;6733;51.044;3.746;2023-04-24T01:36:37;10.10;99.90
13328;DHT22;6733;51.044;3.746;2023-04-24T01:39:03;10.00;99.90
13328;DHT22;6733;51.044;3.746;2023-04-24T01:41:32;10.00;99.90
13328;DHT22;6733;51.044;3.746;2023-04-24T01:43:59;10.20;99.90
13328;DHT22;6733;51.044;3.746;2023-04-24T01:46:26;10.00;99.90
13328;DHT22;6733;51.044;3.746;2023-04-24T01:48:52;10.00;99.90
13328;DHT22;6733;51.044;3.746;2023-04-24T01:51:19;10.10;99.90
13328;DHT22;6733;51.044;3.746;2023-04-24T01:53:45;10.20;99.90
13328;DHT22;6733;51.044;3.746;2023-04-24T01:56:11;10.10;99.90
13328;DHT22;6733;51.044;3.746;2023-04-24T01:58:37;10.00;99.90
13328;DHT22;6733;51.044;3.746;2023-04-24T02:01:06;10.00;99.90
13328;DHT22;6733;51.044;3.746;2023-04-24T02:03:32;10.00;99.90
13328;DHT22;6733;51.044;3.746;2023-04-24T02:05:58;9.90;99.90
13328;DHT22;6733;51.044;3.746;2023-04-24T02:08:25;9.90;99.90
13328;DHT22;6733;51.044;3.746;2023-04-24T02:10:51;9.90;99.90
13328;DHT22;6733;51.044;3.746;2023-04-24T02:13:17;9.90;99.90
13328;DHT22;6733;51.044;3.746;2023-04-24T02:15:43;9.80;99.90
13328;DHT22;6733;51.044;3.746;2023-04-24T02:18:10;9.90;99.90
13328;DHT22;6733;51.044;3.746;2023-04-24T02:20:37;9.90;99.90
13328;DHT22;6733;51.044;3.746;2023-04-24T02:23:03;9.90;99.90
13328;DHT22;6733;51.044;3.746;2023-04-24T02:25:30;10.00;99.90
13328;DHT22;6733;51.044;3.746;2023-04-24T02:27:56;10.00;99.90
13328;DHT22;6733;51.044;3.746;2023-04-24T02:30:22;10.00;99.90
13328;DHT22;6733;51.044;3.746;2023-04-24T02:52:32;10.10;99.90
13328;DHT22;6733;51.044;3.746;2023-04-24T02:54:58;10.20;99.90
13328;DHT22;6733;51.044;3.746;2023-04-24T02:57:24;10.20;99.90
13328;DHT22;6733;51.044;3.746;2023-04-24T02:59:50;10.20;99.90
13328;DHT22;6733;51.044;3.746;2023-04-24T03:02:17;10.10;99.90
13328;DHT22;6733;51.044;3.746;2023-04-24T03:04:43;10.10;99.90
13328;DHT22;6733;51.044;3.746;2023-04-24T03:07:09;10.00;99.90
13328;DHT22;6733;51.044;3.746;2023-04-24T03:09:35;10.00;99.90
13328;DHT22;6733;51.044;3.746;2023-04-24T03:12:01;9.90;99.90
13328;DHT22;6733;51.044;3.746;2023-04-24T03:14:27;10.00;99.90
13328;DHT22;6733;51.044;3.746;2023-04-24T03:16:57;9.90;99.90
13328;DHT22;6733;51.044;3.746;2023-04-24T03:19:23;10.00;99.90
13328;DHT22;6733;51.044;3.746;2023-04-24T03:21:49;10.00;99.90
13328;DHT22;6733;51.044;3.746;2023-04-24T03:24:16;9.90;99.90
13328;DHT22;6733;51.044;3.746;2023-04-24T03:26:42;10.00;99.90
13328;DHT22;6733;51.044;3.746;2023-04-24T03:29:08;10.00;99.90
13328;DHT22;6733;51.044;3.746;2023-04-24T03:31:34;10.10;99.90
13328;DHT22;6733;51.044;3.746;2023-04-24T03:34:00;10.10;99.90
13328;DHT22;6733;51.044;3.746;2023-04-24T03:36:26;10.10;99.90
13328;DHT22;6733;51.044;3.746;2023-04-24T03:38:53;10.00;99.90
13328;DHT22;6733;51.044;3.746;2023-04-24T03:41:19;9.90;99.90
13328;DHT22;6733;51.044;3.746;2023-04-24T03:43:46;10.00;99.90
13328;DHT22;6733;51.044;3.746;2023-04-24T03:46:12;9.80;99.90
13328;DHT22;6733;51.044;3.746;2023-04-24T03:48:38;9.80;99.90
13328;DHT22;6733;51.044;3.746;2023-04-24T03:51:04;9.70;99.90
13328;DHT22;6733;51.044;3.746;2023-04-24T03:53:31;9.80;99.90
13328;DHT22;6733;51.044;3.746;2023-04-24T03:55:57;9.80;99.90
13328;DHT22;6733;51.044;3.746;2023-04-24T03:58:23;9.80;99.90
13328;DHT22;6733;51.044;3.746;2023-04-24T04:00:49;9.70;99.90
13328;DHT22;6733;51.044;3.746;2023-04-24T04:03:16;9.70;99.90
13328;DHT22;6733;51.044;3.746;2023-04-24T04:05:42;9.70;99.90
13328;DHT22;6733;51.044;3.746;2023-04-24T04:08:08;9.80;99.90
13328;DHT22;6733;51.044;3.746;2023-04-24T04:10:35;9.80;99.90
13328;DHT22;6733;51.044;3.746;2023-04-24T04:13:01;9.80;99.90
13328;DHT22;6733;51.044;3.746;2023-04-24T04:15:27;9.80;99.90
13328;DHT22;6733;51.044;3.746;2023-04-24T04:17:53;9.80;99.90
13328;DHT22;6733;51.044;3.746;2023-04-24T04:20:19;9.80;99.90
13328;DHT22;6733;51.044;3.746;2023-04-24T04:22:45;9.80;99.90
13328;DHT22;6733;51.044;3.746;2023-04-24T04:25:11;9.90;99.90
13328;DHT22;6733;51.044;3.746;2023-04-24T04:27:39;9.90;99.90
13328;DHT22;6733;51.044;3.746;2023-04-24T04:30:08;9.90;99.90
13328;DHT22;6733;51.044;3.746;2023-04-24T04:32:35;10.00;99.90
13328;DHT22;6733;51.044;3.746;2023-04-24T04:35:02;10.00;99.90
13328;DHT22;6733;51.044;3.746;2023-04-24T04:37:29;10.00;99.90
13328;DHT22;6733;51.044;3.746;2023-04-24T04:39:56;10.00;99.90
13328;DHT22;6733;51.044;3.746;2023-04-24T04:42:24;10.10;99.90
13328;DHT22;6733;51.044;3.746;2023-04-24T04:44:51;10.10;99.90
13328;DHT22;6733;51.044;3.746;2023-04-24T04:47:17;10.10;99.90
13328;DHT22;6733;51.044;3.746;2023-04-24T04:49:44;10.10;99.90
13328;DHT22;6733;51.044;3.746;2023-04-24T04:52:10;10.20;99.90
13328;DHT22;6733;51.044;3.746;2023-04-24T04:54:36;10.10;99.90
13328;DHT22;6733;51.044;3.746;2023-04-24T04:57:02;10.20;99.90
13328;DHT22;6733;51.044;3.746;2023-04-24T04:59:29;10.10;99.90
13328;DHT22;6733;51.044;3.746;2023-04-24T05:01:55;10.20;99.90
13328;DHT22;6733;51.044;3.746;2023-04-24T05:04:22;10.10;99.90
13328;DHT22;6733;51.044;3.746;2023-04-24T05:06:48;10.10;99.90
13328;DHT22;6733;51.044;3.746;2023-04-24T05:09:14;10.10;99.90
13328;DHT22;6733;51.044;3.746;2023-04-24T05:11:40;10.20;99.90
13328;DHT22;6733;51.044;3.746;2023-04-24T05:14:07;10.10;99.90
13328;DHT22;6733;51.044;3.746;2023-04-24T05:16:33;10.20;99.90
13328;DHT22;6733;51.044;3.746;2023-04-24T05:18:59;10.10;99.90
13328;DHT22;6733;51.044;3.746;2023-04-24T05:21:25;10.00;99.90
13328;DHT22;6733;51.044;3.746;2023-04-24T05:23:52;9.90;99.90
13328;DHT22;6733;51.044;3.746;2023-04-24T05:26:18;10.00;99.90
13328;DHT22;6733;51.044;3.746;2023-04-24T05:28:45;9.90;99.90
13328;DHT22;6733;51.044;3.746;2023-04-24T05:31:11;9.90;99.90
13328;DHT22;6733;51.044;3.746;2023-04-24T05:33:38;9.90;99.90
13328;DHT22;6733;51.044;3.746;2023-04-24T05:36:05;10.00;99.90
13328;DHT22;6733;51.044;3.746;2023-04-24T05:38:32;10.00;99.90
13328;DHT22;6733;51.044;3.746;2023-04-24T05:40:58;10.00;99.90
13328;DHT22;6733;51.044;3.746;2023-04-24T05:43:24;10.00;99.90
13328;DHT22;6733;51.044;3.746;2023-04-24T05:45:51;10.00;99.90
13328;DHT22;6733;51.044;3.746;2023-04-24T05:48:17;10.00;99.90
13328;DHT22;6733;51.044;3.746;2023-04-24T05:50:43;10.00;99.90
13328;DHT22;6733;51.044;3.746;2023-04-24T05:53:09;10.00;99.90
13328;DHT22;6733;51.044;3.746;2023-04-24T05:55:36;10.10;99.90
13328;DHT22;6733;51.044;3.746;2023-04-24T05:58:03;10.10;99.90
13328;DHT22;6733;51.044;3.746;2023-04-24T06:00:29;10.10;99.90
13328;DHT22;6733;51.044;3.746;2023-04-24T06:02:55;10.10;99.90
13328;DHT22;6733;51.044;3.746;2023-04-24T06:05:22;10.10;99.90
13328;DHT22;6733;51.044;3.746;2023-04-24T06:07:48;10.20;99.90
13328;DHT22;6733;51.044;3.746;2023-04-24T06:10:14;10.30;99.90
13328;DHT22;6733;51.044;3.746;2023-04-24T06:12:41;10.40;99.90
13328;DHT22;6733;51.044;3.746;2023-04-24T06:15:07;10.40;99.90
13328;DHT22;6733;51.044;3.746;2023-04-24T06:17:34;10.40;99.90
13328;DHT22;6733;51.044;3.746;2023-04-24T06:20:00;10.50;99.90
13328;DHT22;6733;51.044;3.746;2023-04-24T06:22:26;10.60;99.90
13328;DHT22;6733;51.044;3.746;2023-04-24T06:24:52;10.70;99.90
13328;DHT22;6733;51.044;3.746;2023-04-24T06:27:18;10.80;99.90
13328;DHT22;6733;51.044;3.746;2023-04-24T06:29:44;10.90;99.90
13328;DHT22;6733;51.044;3.746;2023-04-24T06:32:11;11.00;99.90
13328;DHT22;6733;51.044;3.746;2023-04-24T06:34:37;11.10;99.90
13328;DHT22;6733;51.044;3.746;2023-04-24T06:37:03;11.30;99.90
13328;DHT22;6733;51.044;3.746;2023-04-24T06:39:29;11.40;99.90
13328;DHT22;6733;51.044;3.746;2023-04-24T06:41:56;11.50;99.90
13328;DHT22;6733;51.044;3.746;2023-04-24T06:44:22;11.60;99.90
13328;DHT22;6733;51.044;3.746;2023-04-24T06:46:48;11.60;99.90
13328;DHT22;6733;51.044;3.746;2023-04-24T06:49:14;11.50;99.90
13328;DHT22;6733;51.044;3.746;2023-04-24T06:51:41;11.60;99.90
13328;DHT22;6733;51.044;3.746;2023-04-24T06:54:08;11.80;99.90
13328;DHT22;6733;51.044;3.746;2023-04-24T06:56:34;12.00;99.90
13328;DHT22;6733;51.044;3.746;2023-04-24T06:59:00;12.20;99.90
13328;DHT22;6733;51.044;3.746;2023-04-24T07:01:27;12.30;99.90
13328;DHT22;6733;51.044;3.746;2023-04-24T07:03:53;11.70;99.90
13328;DHT22;6733;51.044;3.746;2023-04-24T07:06:19;10.90;99.90
13328;DHT22;6733;51.044;3.746;2023-04-24T07:08:48;10.60;99.90
13328;DHT22;6733;51.044;3.746;2023-04-24T07:11:14;10.60;99.90
13328;DHT22;6733;51.044;3.746;2023-04-24T07:13:40;10.40;99.90
13328;DHT22;6733;51.044;3.746;2023-04-24T07:16:08;10.30;99.90
13328;DHT22;6733;51.044;3.746;2023-04-24T07:18:34;10.00;99.90
13328;DHT22;6733;51.044;3.746;2023-04-24T07:21:00;10.00;99.90
13328;DHT22;6733;51.044;3.746;2023-04-24T07:23:27;9.90;99.90
13328;DHT22;6733;51.044;3.746;2023-04-24T07:25:53;9.90;99.90
13328;DHT22;6733;51.044;3.746;2023-04-24T07:28:19;10.00;99.90
13328;DHT22;6733;51.044;3.746;2023-04-24T07:30:46;10.10;99.90
13328;DHT22;6733;51.044;3.746;2023-04-24T07:33:12;10.00;99.90
13328;DHT22;6733;51.044;3.746;2023-04-24T07:35:39;10.00;99.90
13328;DHT22;6733;51.044;3.746;2023-04-24T07:38:05;10.00;99.90
13328;DHT22;6733;51.044;3.746;2023-04-24T07:40:31;10.10;99.90
13328;DHT22;6733;51.044;3.746;2023-04-24T07:42:57;10.00;99.90
13328;DHT22;6733;51.044;3.746;2023-04-24T07:45:24;10.00;99.90
13328;DHT22;6733;51.044;3.746;2023-04-24T07:47:52;9.90;99.90
13328;DHT22;6733;51.044;3.746;2023-04-24T07:50:18;9.80;99.90
13328;DHT22;6733;51.044;3.746;2023-04-24T07:52:44;10.00;99.90
13328;DHT22;6733;51.044;3.746;2023-04-24T07:55:10;9.90;99.90
13328;DHT22;6733;51.044;3.746;2023-04-24T07:57:37;10.00;99.90
13328;DHT22;6733;51.044;3.746;2023-04-24T08:00:04;10.10;99.90
13328;DHT22;6733;51.044;3.746;2023-04-24T08:02:31;10.20;99.90
13328;DHT22;6733;51.044;3.746;2023-04-24T08:04:57;10.20;99.90
13328;DHT22;6733;51.044;3.746;2023-04-24T08:07:23;10.60;99.90
13328;DHT22;6733;51.044;3.746;2023-04-24T08:09:50;11.00;99.90
13328;DHT22;6733;51.044;3.746;2023-04-24T08:12:16;11.20;99.90
13328;DHT22;6733;51.044;3.746;2023-04-24T08:14:42;11.00;99.90
13328;DHT22;6733;51.044;3.746;2023-04-24T08:17:08;11.00;99.90
13328;DHT22;6733;51.044;3.746;2023-04-24T08:19:34;10.70;99.90
13328;DHT22;6733;51.044;3.746;2023-04-24T08:22:00;10.70;99.90
13328;DHT22;6733;51.044;3.746;2023-04-24T08:24:27;10.80;99.90
13328;DHT22;6733;51.044;3.746;2023-04-24T08:26:53;10.90;99.90
13328;DHT22;6733;51.044;3.746;2023-04-24T08:29:20;11.30;99.90
13328;DHT22;6733;51.044;3.746;2023-04-24T08:31:46;11.40;99.90
13328;DHT22;6733;51.044;3.746;2023-04-24T08:34:13;11.60;99.90
13328;DHT22;6733;51.044;3.746;2023-04-24T08:36:39;11.60;99.90
13328;DHT22;6733;51.044;3.746;2023-04-24T08:39:06;11.90;99.90
13328;DHT22;6733;51.044;3.746;2023-04-24T08:41:34;12.10;99.90
13328;DHT22;6733;51.044;3.746;2023-04-24T08:44:01;12.10;99.90
13328;DHT22;6733;51.044;3.746;2023-04-24T08:46:29;12.20;99.90
13328;DHT22;6733;51.044;3.746;2023-04-24T08:48:56;12.10;99.90
13328;DHT22;6733;51.044;3.746;2023-04-24T08:51:26;11.70;99.90
13328;DHT22;6733;51.044;3.746;2023-04-24T08:53:54;11.60;99.90
13328;DHT22;6733;51.044;3.746;2023-04-24T08:56:21;11.70;99.90
13328;DHT22;6733;51.044;3.746;2023-04-24T08:58:50;11.50;99.90
13328;DHT22;6733;51.044;3.746;2023-04-24T09:01:19;11.20;99.90
13328;DHT22;6733;51.044;3.746;2023-04-24T09:03:48;11.10;99.90
13328;DHT22;6733;51.044;3.746;2023-04-24T09:06:16;11.40;99.90
13328;DHT22;6733;51.044;3.746;2023-04-24T09:08:43;11.70;99.90
13328;DHT22;6733;51.044;3.746;2023-04-24T09:11:11;11.70;99.90
13328;DHT22;6733;51.044;3.746;2023-04-24T09:13:38;11.80;99.90
13328;DHT22;6733;51.044;3.746;2023-04-24T09:16:05;11.80;99.90
13328;DHT22;6733;51.044;3.746;2023-04-24T09:18:31;11.60;99.90
13328;DHT22;6733;51.044;3.746;2023-04-24T09:20:58;11.50;99.90
13328;DHT22;6733;51.044;3.746;2023-04-24T09:23:30;11.50;99.90
13328;DHT22;6733;51.044;3.746;2023-04-24T09:25:58;11.50;99.90
13328;DHT22;6733;51.044;3.746;2023-04-24T09:28:37;11.40;99.90
13328;DHT22;6733;51.044;3.746;2023-04-24T09:31:12;11.50;99.90
13328;DHT22;6733;51.044;3.746;2023-04-24T09:33:40;11.40;99.90
13328;DHT22;6733;51.044;3.746;2023-04-24T09:36:09;11.10;99.90
13328;DHT22;6733;51.044;3.746;2023-04-24T09:38:37;10.90;99.90
13328;DHT22;6733;51.044;3.746;2023-04-24T09:41:06;11.00;99.90
13328;DHT22;6733;51.044;3.746;2023-04-24T09:43:33;11.10;99.90
13328;DHT22;6733;51.044;3.746;2023-04-24T09:46:05;11.60;99.90
13328;DHT22;6733;51.044;3.746;2023-04-24T09:48:33;11.80;99.90
13328;DHT22;6733;51.044;3.746;2023-04-24T09:51:01;11.80;99.90
13328;DHT22;6733;51.044;3.746;2023-04-24T09:53:30;11.60;99.90
13328;DHT22;6733;51.044;3.746;2023-04-24T09:56:03;12.00;99.90
13328;DHT22;6733;51.044;3.746;2023-04-24T09:58:32;12.20;99.90
13328;DHT22;6733;51.044;3.746;2023-04-24T10:01:01;12.50;99.90
13328;DHT22;6733;51.044;3.746;2023-04-24T10:03:31;12.00;99.90
13328;DHT22;6733;51.044;3.746;2023-04-24T10:05:59;12.00;99.90
13328;DHT22;6733;51.044;3.746;2023-04-24T10:08:26;12.00;99.90
13328;DHT22;6733;51.044;3.746;2023-04-24T10:10:52;12.20;99.90
13328;DHT22;6733;51.044;3.746;2023-04-24T10:13:19;12.30;99.90
13328;DHT22;6733;51.044;3.746;2023-04-24T10:15:45;12.50;99.90
13328;DHT22;6733;51.044;3.746;2023-04-24T10:18:13;12.20;99.90
13328;DHT22;6733;51.044;3.746;2023-04-24T10:20:41;12.20;99.90
13328;DHT22;6733;51.044;3.746;2023-04-24T10:23:08;12.00;99.90
13328;DHT22;6733;51.044;3.746;2023-04-24T10:25:35;11.90;99.90
13328;DHT22;6733;51.044;3.746;2023-04-24T10:28:03;11.90;99.90
13328;DHT22;6733;51.044;3.746;2023-04-24T10:30:34;12.00;99.90
13328;DHT22;6733;51.044;3.746;2023-04-24T10:33:04;12.20;99.90
13328;DHT22;6733;51.044;3.746;2023-04-24T10:35:34;12.10;99.90
13328;DHT22;6733;51.044;3.746;2023-04-24T10:38:06;11.80;99.90
13328;DHT22;6733;51.044;3.746;2023-04-24T10:40:35;12.00;99.90
13328;DHT22;6733;51.044;3.746;2023-04-24T10:43:06;12.00;99.90
13328;DHT22;6733;51.044;3.746;2023-04-24T10:45:34;12.00;99.90
13328;DHT22;6733;51.044;3.746;2023-04-24T10:48:08;11.90;99.90
13328;DHT22;6733;51.044;3.746;2023-04-24T10:50:57;12.10;99.90
13328;DHT22;6733;51.044;3.746;2023-04-24T10:53:28;11.70;99.90
13328;DHT22;6733;51.044;3.746;2023-04-24T10:58:45;11.70;99.90
13328;DHT22;6733;51.044;3.746;2023-04-24T11:01:28;11.40;99.90
13328;DHT22;6733;51.044;3.746;2023-04-24T11:03:59;11.80;99.90
13328;DHT22;6733;51.044;3.746;2023-04-24T11:06:33;12.10;99.90
13328;DHT22;6733;51.044;3.746;2023-04-24T11:09:06;12.30;99.90
13328;DHT22;6733;51.044;3.746;2023-04-24T11:11:34;12.40;99.90
13328;DHT22;6733;51.044;3.746;2023-04-24T11:14:02;13.00;99.90
13328;DHT22;6733;51.044;3.746;2023-04-24T11:21:45;13.00;99.90
13328;DHT22;6733;51.044;3.746;2023-04-24T11:27:20;13.40;99.90
13328;DHT22;6733;51.044;3.746;2023-04-24T11:35:03;14.00;99.90
13328;DHT22;6733;51.044;3.746;2023-04-24T11:37:37;13.80;99.90
13328;DHT22;6733;51.044;3.746;2023-04-24T11:40:06;13.30;99.90
13328;DHT22;6733;51.044;3.746;2023-04-24T11:42:49;13.20;99.90
13328;DHT22;6733;51.044;3.746;2023-04-24T11:47:49;13.50;99.90
13328;DHT22;6733;51.044;3.746;2023-04-24T11:50:18;13.30;99.90
13328;DHT22;6733;51.044;3.746;2023-04-24T11:52:46;13.10;99.90
13328;DHT22;6733;51.044;3.746;2023-04-24T11:57:46;12.80;99.90
13328;DHT22;6733;51.044;3.746;2023-04-24T12:00:20;12.80;99.90
13328;DHT22;6733;51.044;3.746;2023-04-24T12:02:47;12.90;99.90
13328;DHT22;6733;51.044;3.746;2023-04-24T12:05:23;13.20;99.90
13328;DHT22;6733;51.044;3.746;2023-04-24T12:07:50;13.30;99.90
13328;DHT22;6733;51.044;3.746;2023-04-24T12:10:24;13.90;99.90
13328;DHT22;6733;51.044;3.746;2023-04-24T12:12:51;13.40;99.90
13328;DHT22;6733;51.044;3.746;2023-04-24T12:15:19;13.70;99.90
13328;DHT22;6733;51.044;3.746;2023-04-24T12:17:45;14.00;99.90
13328;DHT22;6733;51.044;3.746;2023-04-24T12:20:13;14.20;99.90
13328;DHT22;6733;51.044;3.746;2023-04-24T12:22:50;13.50;99.90
13328;DHT22;6733;51.044;3.746;2023-04-24T12:25:18;12.70;99.90
13328;DHT22;6733;51.044;3.746;2023-04-24T12:27:45;12.50;99.90
13328;DHT22;6733;51.044;3.746;2023-04-24T12:30:16;12.60;99.90
13328;DHT22;6733;51.044;3.746;2023-04-24T12:32:45;13.20;99.90
13328;DHT22;6733;51.044;3.746;2023-04-24T12:35:11;13.00;99.90
13328;DHT22;6733;51.044;3.746;2023-04-24T12:37:38;13.40;99.90
13328;DHT22;6733;51.044;3.746;2023-04-24T12:40:06;12.70;99.90
13328;DHT22;6733;51.044;3.746;2023-04-24T12:42:34;12.90;99.90
13328;DHT22;6733;51.044;3.746;2023-04-24T12:45:03;12.80;99.90
13328;DHT22;6733;51.044;3.746;2023-04-24T12:47:30;12.60;99.90
13328;DHT22;6733;51.044;3.746;2023-04-24T12:49:57;12.30;99.90
13328;DHT22;6733;51.044;3.746;2023-04-24T12:52:24;12.50;99.90
13328;DHT22;6733;51.044;3.746;2023-04-24T12:54:51;12.50;99.90
13328;DHT22;6733;51.044;3.746;2023-04-24T12:57:18;12.40;99.90
13328;DHT22;6733;51.044;3.746;2023-04-24T12:59:44;12.80;99.90
13328;DHT22;6733;51.044;3.746;2023-04-24T13:02:11;13.10;99.90
13328;DHT22;6733;51.044;3.746;2023-04-24T13:04:37;13.10;99.90
13328;DHT22;6733;51.044;3.746;2023-04-24T13:07:05;12.80;99.90
13328;DHT22;6733;51.044;3.746;2023-04-24T13:09:31;12.80;99.90
13328;DHT22;6733;51.044;3.746;2023-04-24T13:11:57;12.70;99.90
13328;DHT22;6733;51.044;3.746;2023-04-24T13:14:24;12.50;99.90
13328;DHT22;6733;51.044;3.746;2023-04-24T13:16:50;12.80;99.90
13328;DHT22;6733;51.044;3.746;2023-04-24T13:19:16;12.90;99.90
13328;DHT22;6733;51.044;3.746;2023-04-24T13:21:42;12.90;99.90
13328;DHT22;6733;51.044;3.746;2023-04-24T13:24:08;13.00;99.90
13328;DHT22;6733;51.044;3.746;2023-04-24T13:26:36;12.80;99.90
13328;DHT22;6733;51.044;3.746;2023-04-24T13:29:02;12.60;99.90
13328;DHT22;6733;51.044;3.746;2023-04-24T13:31:29;12.90;99.90
13328;DHT22;6733;51.044;3.746;2023-04-24T13:33:55;13.20;99.90
13328;DHT22;6733;51.044;3.746;2023-04-24T13:36:21;13.50;99.90
13328;DHT22;6733;51.044;3.746;2023-04-24T13:38:47;13.30;99.90
13328;DHT22;6733;51.044;3.746;2023-04-24T13:41:14;13.70;99.90
13328;DHT22;6733;51.044;3.746;2023-04-24T13:43:40;14.20;99.90
13328;DHT22;6733;51.044;3.746;2023-04-24T13:46:08;14.40;99.90
13328;DHT22;6733;51.044;3.746;2023-04-24T13:48:34;14.40;99.90
13328;DHT22;6733;51.044;3.746;2023-04-24T13:51:01;14.60;99.90
13328;DHT22;6733;51.044;3.746;2023-04-24T13:53:27;14.50;99.90
13328;DHT22;6733;51.044;3.746;2023-04-24T13:55:53;14.20;99.90
13328;DHT22;6733;51.044;3.746;2023-04-24T13:58:19;14.70;99.90
13328;DHT22;6733;51.044;3.746;2023-04-24T14:00:46;14.30;99.90
13328;DHT22;6733;51.044;3.746;2023-04-24T14:03:12;14.60;99.90
13328;DHT22;6733;51.044;3.746;2023-04-24T14:05:39;14.30;99.90
13328;DHT22;6733;51.044;3.746;2023-04-24T14:08:05;14.80;99.90
13328;DHT22;6733;51.044;3.746;2023-04-24T14:10:32;14.90;99.90
13328;DHT22;6733;51.044;3.746;2023-04-24T14:12:58;14.60;99.90
13328;DHT22;6733;51.044;3.746;2023-04-24T14:15:24;14.70;99.90
13328;DHT22;6733;51.044;3.746;2023-04-24T14:17:50;15.40;99.90
13328;DHT22;6733;51.044;3.746;2023-04-24T14:20:16;15.40;99.90
13328;DHT22;6733;51.044;3.746;2023-04-24T14:22:43;15.00;99.90
13328;DHT22;6733;51.044;3.746;2023-04-24T14:25:09;14.80;99.90
13328;DHT22;6733;51.044;3.746;2023-04-24T14:27:35;14.20;99.90
13328;DHT22;6733;51.044;3.746;2023-04-24T14:30:02;13.80;99.90
13328;DHT22;6733;51.044;3.746;2023-04-24T14:32:28;13.90;99.90
13328;DHT22;6733;51.044;3.746;2023-04-24T14:34:56;13.50;99.90
13328;DHT22;6733;51.044;3.746;2023-04-24T14:37:22;13.50;99.90
13328;DHT22;6733;51.044;3.746;2023-04-24T14:39:48;13.90;99.90
13328;DHT22;6733;51.044;3.746;2023-04-24T14:42:14;14.10;99.90
13328;DHT22;6733;51.044;3.746;2023-04-24T14:44:42;14.70;99.90
13328;DHT22;6733;51.044;3.746;2023-04-24T14:47:08;14.90;99.90
13328;DHT22;6733;51.044;3.746;2023-04-24T14:49:35;14.70;99.90
13328;DHT22;6733;51.044;3.746;2023-04-24T14:52:01;14.80;99.90
13328;DHT22;6733;51.044;3.746;2023-04-24T14:54:28;14.40;99.90
13328;DHT22;6733;51.044;3.746;2023-04-24T14:56:55;14.00;99.90
13328;DHT22;6733;51.044;3.746;2023-04-24T14:59:22;14.00;99.90
13328;DHT22;6733;51.044;3.746;2023-04-24T15:01:49;13.50;99.90
13328;DHT22;6733;51.044;3.746;2023-04-24T15:04:16;13.30;99.90
13328;DHT22;6733;51.044;3.746;2023-04-24T15:06:42;13.60;99.90
13328;DHT22;6733;51.044;3.746;2023-04-24T15:09:09;13.60;99.90
13328;DHT22;6733;51.044;3.746;2023-04-24T15:11:36;13.20;99.90
13328;DHT22;6733;51.044;3.746;2023-04-24T15:14:02;13.10;99.90
13328;DHT22;6733;51.044;3.746;2023-04-24T15:16:28;13.00;99.90
13328;DHT22;6733;51.044;3.746;2023-04-24T15:18:54;13.10;99.90
13328;DHT22;6733;51.044;3.746;2023-04-24T15:21:22;13.20;99.90
13328;DHT22;6733;51.044;3.746;2023-04-24T15:23:49;13.40;99.90
13328;DHT22;6733;51.044;3.746;2023-04-24T15:26:15;13.60;99.90
13328;DHT22;6733;51.044;3.746;2023-04-24T15:28:41;13.50;99.90
13328;DHT22;6733;51.044;3.746;2023-04-24T15:31:08;13.30;99.90
13328;DHT22;6733;51.044;3.746;2023-04-24T15:33:34;13.20;99.90
13328;DHT22;6733;51.044;3.746;2023-04-24T15:36:00;13.10;99.90
13328;DHT22;6733;51.044;3.746;2023-04-24T15:38:26;13.10;99.90
13328;DHT22;6733;51.044;3.746;2023-04-24T15:40:52;13.30;99.90
13328;DHT22;6733;51.044;3.746;2023-04-24T15:43:18;13.30;99.90
13328;DHT22;6733;51.044;3.746;2023-04-24T15:45:45;13.50;99.90
13328;DHT22;6733;51.044;3.746;2023-04-24T15:48:11;13.50;99.90
13328;DHT22;6733;51.044;3.746;2023-04-24T15:50:37;13.60;99.90
13328;DHT22;6733;51.044;3.746;2023-04-24T15:53:03;13.70;99.90
13328;DHT22;6733;51.044;3.746;2023-04-24T15:55:29;13.60;99.90
13328;DHT22;6733;51.044;3.746;2023-04-24T15:57:56;14.00;99.90
13328;DHT22;6733;51.044;3.746;2023-04-24T16:00:22;15.90;99.90
13328;DHT22;6733;51.044;3.746;2023-04-24T16:02:48;16.90;99.90
13328;DHT22;6733;51.044;3.746;2023-04-24T16:05:16;15.30;99.90
13328;DHT22;6733;51.044;3.746;2023-04-24T16:07:44;14.00;99.90
13328;DHT22;6733;51.044;3.746;2023-04-24T16:10:10;13.80;99.90
13328;DHT22;6733;51.044;3.746;2023-04-24T16:12:37;13.50;99.90
13328;DHT22;6733;51.044;3.746;2023-04-24T16:15:04;13.40;99.90
13328;DHT22;6733;51.044;3.746;2023-04-24T16:17:31;13.20;99.90
13328;DHT22;6733;51.044;3.746;2023-04-24T16:19:57;13.20;99.90
13328;DHT22;6733;51.044;3.746;2023-04-24T16:22:23;13.00;99.90
13328;DHT22;6733;51.044;3.746;2023-04-24T16:24:49;12.90;99.90
13328;DHT22;6733;51.044;3.746;2023-04-24T16:27:15;13.00;99.90